Time;durP1;ratioP1;P1;durP2;ratioP2;P2;SDS_P1;SDS_P2;PMS_P1;PMS_P2;Temp;Humidity;BMP_temperature;BMP_pressure;BME280_temperature;BME280_humidity;BME280_pressure;Samples;Min_cycle;Max_cycle;Signal;HPM_P1;HPM_P2
2022/07/01 09:05:27;;;;;;;111.75;11.35;;;;;;;13.43;86.13;96905.34;2086702;28;20561;-59
2022/07/01 09:06:29;;;;;;;124.78;36.90;;;;;;;13.48;85.56;96906.78;2076107;28;20210;-60
2022/07/01 09:15:37;;;;;;;94.25;8.13;;;;;;;13.70;83.54;96866.31;2094046;27;20583;-60
2022/07/01 09:16:48;;;;;;;99.60;15.80;;;;;;;13.95;83.12;96870.22;2087254;28;20705;-60
2022/07/01 09:17:51;;;;;;;93.68;8.20;;;;;;;14.02;81.98;96871.59;2079190;28;20298;-60
2022/07/01 09:27:36;;;;;;;100.15;3.90;;;;;;;14.04;80.53;96902.06;2084267;27;20576;-60
2022/07/01 09:28:38;;;;;;;89.32;4.13;;;;;;;14.16;80.90;96897.91;2093545;28;20253;-60
2022/07/01 09:29:44;;;;;;;87.72;4.25;;;;;;;14.31;80.33;96898.84;2088900;28;20201;-60
2022/07/01 09:30:49;;;;;;;89.57;9.02;;;;;;;14.37;79.56;96889.78;2077606;28;20192;-60
2022/07/01 09:31:50;;;;;;;90.07;7.18;;;;;;;13.93;79.02;96823.06;2078155;28;20596;-60
2022/07/01 09:33:14;;;;;;;91.07;9.98;;;;;;;14.46;78.44;96886.66;2078125;28;20228;-61
2022/07/01 09:34:16;;;;;;;93.43;12.27;;;;;;;14.50;78.47;96888.16;2077759;28;20228;-60
2022/07/01 09:35:24;;;;;;;97.63;17.77;;;;;;;14.58;77.88;96879.00;2078643;28;20641;-60
2022/07/01 09:36:25;;;;;;;97.03;17.92;;;;;;;14.76;77.38;96890.28;2078309;28;20227;-60
2022/07/01 09:37:26;;;;;;;99.43;19.60;;;;;;;14.89;77.15;96890.41;2071005;28;20323;-60
2022/07/01 09:38:28;;;;;;;91.60;11.07;;;;;;;14.87;77.28;96898.38;2094303;28;20196;-60
2022/07/01 09:39:53;;;;;;;99.95;22.85;;;;;;;14.86;76.23;96899.31;2090362;28;20200;-60
2022/07/01 09:52:04;;;;;;;97.20;8.32;;;;;;;15.12;75.14;96899.56;2088863;28;20554;-61
2022/07/01 09:53:06;;;;;;;91.95;14.05;;;;;;;15.11;76.25;96896.09;2083781;28;20852;-60
2022/07/01 09:54:08;;;;;;;94.38;18.95;;;;;;;15.16;76.09;96901.06;2079869;28;20204;-61
2022/07/01 09:55:12;;;;;;;95.53;22.42;;;;;;;15.40;74.45;96908.44;2083579;28;20795;-60
2022/07/01 09:56:14;;;;;;;98.68;26.30;;;;;;;15.74;74.06;96915.13;2083519;28;20189;-61
2022/07/01 09:57:17;;;;;;;101.07;21.27;;;;;;;15.76;72.79;96907.16;2081322;28;20615;-61
2022/07/01 09:58:19;;;;;;;91.93;18.75;;;;;;;15.60;75.87;96917.78;2072306;28;20239;-59
2022/07/01 09:59:20;;;;;;;89.97;8.10;;;;;;;14.90;73.24;96911.34;2076183;28;20209;-61
2022/07/01 10:00:22;;;;;;;100.72;21.33;;;;;;;14.80;76.11;96925.94;2076032;28;20208;-61
2022/07/01 10:01:24;;;;;;;107.30;29.25;;;;;;;15.35;74.58;96932.41;2076260;28;20226;-61
2022/07/01 10:02:29;;;;;;;95.85;16.48;;;;;;;15.23;73.90;96926.09;2067613;28;20197;-61
2022/07/01 10:03:32;;;;;;;88.72;9.73;;;;;;;15.16;74.57;96928.25;2082227;28;20252;-61
2022/07/01 10:04:38;;;;;;;93.80;15.45;;;;;;;15.47;73.96;96928.19;2074266;28;20711;-61
2022/07/01 10:05:50;;;;;;;91.63;4.50;;;;;;;15.41;74.56;96916.25;2072710;28;20705;-61
2022/07/01 10:07:04;;;;;;;89.40;12.70;;;;;;;15.75;72.63;96921.28;2072694;28;20202;-61
2022/07/01 10:08:20;;;;;;;85.07;5.90;;;;;;;15.62;72.90;96922.00;2069377;28;20232;-61
2022/07/01 10:20:10;;;;;;;90.20;9.30;;;;;;;14.96;75.92;96818.13;2082997;28;20908;-60
2022/07/01 10:21:30;;;;;;;91.30;8.85;;;;;;;15.87;73.94;96919.69;2077972;28;20201;-60
2022/07/01 10:22:31;;;;;;;86.53;4.82;;;;;;;15.97;72.48;96921.66;2068499;28;20204;-60
2022/07/01 10:23:43;;;;;;;89.80;14.65;;;;;;;15.86;73.84;96918.00;2078142;28;20196;-60
2022/07/01 10:24:46;;;;;;;90.85;12.90;;;;;;;15.72;75.22;96917.03;2074681;28;20198;-60
2022/07/01 10:25:50;;;;;;;83.90;5.30;;;;;;;15.85;72.19;96927.69;2069847;28;20201;-60
2022/07/01 10:26:52;;;;;;;92.85;10.55;;;;;;;15.64;70.85;96912.25;2069843;28;20193;-61
2022/07/01 10:28:16;;;;;;;95.57;5.07;;;;;;;15.85;69.58;96919.78;2065479;28;20228;-61
2022/07/01 10:29:27;;;;;;;92.97;11.65;;;;;;;16.02;71.45;96921.38;2076789;28;20205;-61
2022/07/01 10:30:32;;;;;;;90.22;9.13;;;;;;;15.94;72.17;96924.47;2069843;28;20202;-61
2022/07/01 10:31:38;;;;;;;81.97;3.40;;;;;;;15.99;72.98;96932.09;2070521;28;20209;-61
2022/07/01 10:32:51;;;;;;;89.00;11.73;;;;;;;16.01;73.12;96930.25;2068805;28;20225;-60
2022/07/01 10:34:10;;;;;;;101.57;17.02;;;;;;;16.04;70.50;96922.13;2070296;28;20198;-59
2022/07/01 10:35:12;;;;;;;88.28;9.65;;;;;;;15.79;72.45;96899.91;2070006;28;20198;-59
2022/07/01 10:48:19;;;;;;;96.72;6.78;;;;;;;16.62;70.16;96951.84;2078646;28;20571;-59
2022/07/01 10:49:40;;;;;;;100.47;8.10;;;;;;;16.57;69.67;96964.47;2088478;28;20208;-60
2022/07/01 10:50:45;;;;;;;91.95;10.30;;;;;;;16.53;68.79;96957.72;2079387;28;20615;-60
2022/07/01 10:51:48;;;;;;;92.03;14.38;;;;;;;16.29;68.83;96957.47;2077947;28;20597;-60
2022/07/01 10:53:04;;;;;;;92.78;14.48;;;;;;;16.59;70.12;96953.84;2080100;28;20716;-61
2022/07/01 10:54:05;;;;;;;92.35;6.35;;;;;;;16.62;67.97;96959.75;2082826;28;20204;-60
2022/07/01 10:55:10;;;;;;;94.18;19.83;;;;;;;16.49;70.23;96962.34;2080604;28;20204;-60
2022/07/01 10:56:16;;;;;;;94.88;13.50;;;;;;;16.74;69.17;96959.91;2075406;28;20204;-61
2022/07/01 10:57:23;;;;;;;91.90;6.25;;;;;;;16.87;68.04;96959.97;2067254;28;20197;-60
2022/07/01 10:58:38;;;;;;;93.05;5.60;;;;;;;16.73;68.13;96945.88;2082380;28;20212;-61
2022/07/01 10:59:40;;;;;;;92.70;7.43;;;;;;;16.84;68.07;96965.44;2076666;28;20587;-61
2022/07/01 11:00:47;;;;;;;94.07;5.10;;;;;;;16.77;67.53;96954.44;2078715;28;20205;-60
2022/07/01 11:01:48;;;;;;;99.15;5.28;;;;;;;17.03;65.65;96962.47;2082384;28;20199;-61
2022/07/01 11:02:50;;;;;;;98.18;4.30;;;;;;;17.06;64.38;96964.91;2074059;28;20595;-60
2022/07/01 11:03:52;;;;;;;98.30;5.03;;;;;;;17.33;64.04;96954.31;2088186;28;20192;-61
2022/07/01 11:04:57;;;;;;;94.43;4.00;;;;;;;17.47;63.36;96942.81;2084755;28;20663;-60
2022/07/01 11:05:59;;;;;;;101.88;5.00;;;;;;;17.88;62.01;96959.44;2081356;28;20587;-60
2022/07/01 11:07:00;;;;;;;97.30;6.43;;;;;;;18.25;59.03;96952.41;2074369;28;20194;-62
2022/07/01 11:08:05;;;;;;;101.47;5.10;;;;;;;18.72;59.24;96951.78;2060019;28;20248;-62
2022/07/01 11:09:06;;;;;;;102.95;5.72;;;;;;;18.92;57.70;96956.47;2092053;28;20207;-62
2022/07/01 11:10:10;;;;;;;108.65;4.75;;;;;;;18.76;59.10;96950.59;2084180;28;20204;-62
2022/07/01 11:11:12;;;;;;;101.95;6.03;;;;;;;18.57;60.31;96953.72;2083213;28;20197;-62
2022/07/01 11:12:17;;;;;;;107.97;5.85;;;;;;;18.54;59.33;96959.25;2084418;28;20251;-61
2022/07/01 11:13:19;;;;;;;103.32;7.95;;;;;;;18.22;58.89;96955.28;2080448;28;20301;-62
2022/07/01 11:14:20;;;;;;;108.00;12.63;;;;;;;18.13;56.94;96952.44;2082352;28;20217;-62
2022/07/01 11:15:23;;;;;;;105.20;5.97;;;;;;;17.93;59.76;96944.97;2080686;28;20228;-61
2022/07/01 11:16:24;;;;;;;111.65;12.20;;;;;;;17.83;61.54;96951.81;2079618;28;20197;-62
2022/07/01 11:17:26;;;;;;;117.80;22.38;;;;;;;17.86;57.82;96948.13;2072230;28;20247;-61
2022/07/01 11:18:30;;;;;;;141.75;43.63;;;;;;;17.84;57.52;96947.38;2088787;28;20219;-62
2022/07/01 11:19:32;;;;;;;131.50;37.40;;;;;;;18.00;57.61;96931.34;2085792;28;20200;-62
2022/07/01 11:20:33;;;;;;;148.63;48.65;;;;;;;18.25;57.22;96926.00;2083091;28;20193;-61
2022/07/01 11:21:35;;;;;;;114.90;11.10;;;;;;;17.97;59.38;96937.69;2083719;28;20196;-61
2022/07/01 11:22:37;;;;;;;119.75;20.55;;;;;;;18.20;60.22;96940.50;2075014;28;20296;-62
2022/07/01 11:23:38;;;;;;;117.18;15.82;;;;;;;18.55;60.15;96948.56;2083380;28;20207;-62
2022/07/01 11:24:42;;;;;;;116.72;15.95;;;;;;;18.40;60.69;96917.94;2083150;28;20220;-62
2022/07/01 11:25:44;;;;;;;130.10;42.38;;;;;;;18.81;58.81;96940.50;2083766;28;20193;-62
2022/07/01 11:26:46;;;;;;;117.97;17.58;;;;;;;18.64;60.20;96940.88;2084839;28;20283;-63
2022/07/01 11:27:50;;;;;;;117.65;15.73;;;;;;;18.25;60.01;96951.59;2070663;28;20221;-62
2022/07/01 11:28:51;;;;;;;120.75;20.83;;;;;;;18.34;60.75;96955.38;2075718;28;20198;-63
2022/07/01 11:30:13;;;;;;;120.85;22.50;;;;;;;18.16;61.27;96953.09;2079331;28;20196;-62
2022/07/01 11:31:28;;;;;;;117.75;16.55;;;;;;;18.13;59.55;96948.00;2081702;28;20197;-62
2022/07/01 11:32:35;;;;;;;143.15;51.10;;;;;;;18.19;59.34;96955.50;2079721;28;20208;-62
2022/07/01 11:33:39;;;;;;;123.43;24.90;;;;;;;18.05;59.60;96947.72;2081205;28;20201;-62
2022/07/01 11:34:41;;;;;;;117.63;16.73;;;;;;;18.09;60.37;96947.41;2081245;28;20215;-62
2022/07/01 11:40:10;;;;;;;169.80;120.60;;;;;;;18.00;62.74;96955.94;2081960;28;20192;-64
2022/07/01 11:41:24;;;;;;;145.35;52.67;;;;;;;18.40;62.67;96953.13;2079838;28;20197;-64
2022/07/01 11:42:26;;;;;;;151.98;81.30;;;;;;;19.49;61.50;96955.81;2074679;28;20201;-61
2022/07/01 11:43:30;;;;;;;143.82;53.58;;;;;;;20.27;56.60;96962.19;2091907;28;20200;-62
2022/07/01 11:44:33;;;;;;;144.95;53.92;;;;;;;20.72;55.80;96940.09;2084091;28;20196;-61
2022/07/01 11:45:35;;;;;;;162.77;92.47;;;;;;;20.79;57.09;96940.47;2083497;28;20821;-62
2022/07/01 11:46:36;;;;;;;112.60;7.55;;;;;;;21.20;53.64;96933.53;2085419;28;20197;-62
2022/07/01 11:47:38;;;;;;;119.05;18.63;;;;;;;21.35;53.67;96947.34;2076009;28;20224;-62
2022/07/01 11:48:43;;;;;;;122.88;22.95;;;;;;;21.33;52.33;96955.44;2089276;28;20259;-62
2022/07/01 11:49:46;;;;;;;118.72;16.48;;;;;;;21.53;50.32;96950.25;2086204;28;20196;-62
2022/07/01 11:50:48;;;;;;;130.38;40.20;;;;;;;21.84;51.37;96953.84;2081835;28;20280;-62
2022/07/01 11:51:58;;;;;;;136.13;32.75;;;;;;;20.82;54.00;96961.41;2079283;28;20205;-62
2022/07/01 11:53:00;;;;;;;116.50;14.70;;;;;;;20.05;54.49;96957.75;2079985;28;20216;-62
2022/07/01 11:54:02;;;;;;;133.05;43.00;;;;;;;20.67;54.63;96956.38;2078970;28;20209;-62
2022/07/01 11:55:05;;;;;;;125.00;30.15;;;;;;;20.87;54.28;96956.56;2079688;28;20236;-62
2022/07/01 11:56:33;;;;;;;122.40;17.85;;;;;;;20.41;53.33;96953.16;2080836;28;20204;-62
2022/07/01 11:57:35;;;;;;;122.88;21.17;;;;;;;20.18;53.70;96950.50;2074070;28;20651;-62
2022/07/01 11:58:55;;;;;;;126.53;31.00;;;;;;;20.42;53.40;96932.78;2083449;28;20201;-62
2022/07/01 11:59:57;;;;;;;131.45;42.78;;;;;;;20.37;56.60;96951.72;2080144;28;20192;-62
2022/07/01 12:00:58;;;;;;;123.78;18.88;;;;;;;19.85;55.84;96959.31;2078114;28;20553;-62
2022/07/01 12:01:59;;;;;;;132.77;31.85;;;;;;;19.54;58.89;96958.97;2077709;28;20204;-63
2022/07/01 12:03:01;;;;;;;129.48;38.22;;;;;;;19.81;56.60;96956.00;2072018;28;20212;-62
2022/07/01 12:04:06;;;;;;;127.07;15.52;;;;;;;19.23;52.78;96958.66;2084207;28;20203;-63
2022/07/01 12:05:08;;;;;;;149.40;71.57;;;;;;;19.26;54.66;96966.34;2072851;28;20241;-62
2022/07/01 12:06:09;;;;;;;129.98;39.38;;;;;;;19.29;57.24;96958.19;2073666;28;20218;-64
2022/07/01 12:07:13;;;;;;;138.48;46.38;;;;;;;19.28;55.22;96953.00;2075480;28;20240;-63
2022/07/01 12:08:14;;;;;;;133.75;42.97;;;;;;;19.37;55.59;96960.25;2075411;28;20293;-63
2022/07/01 12:09:19;;;;;;;120.97;22.77;;;;;;;19.61;55.87;96959.38;2078251;28;20194;-63
2022/07/01 12:10:28;;;;;;;128.63;39.17;;;;;;;19.30;57.98;96956.38;2078532;28;20197;-63
2022/07/01 12:11:30;;;;;;;128.32;32.72;;;;;;;19.30;57.97;96944.00;2074416;28;20209;-63
2022/07/01 12:12:39;;;;;;;120.45;20.85;;;;;;;19.23;56.75;96950.69;2068669;28;20257;-63
2022/07/01 12:13:43;;;;;;;132.32;36.88;;;;;;;19.13;58.16;96944.41;2086196;28;20212;-62
2022/07/01 12:14:58;;;;;;;127.32;32.08;;;;;;;18.89;58.35;96958.47;2080157;28;20201;-63
2022/07/01 12:16:10;;;;;;;119.95;16.90;;;;;;;18.71;57.38;96958.84;2073989;28;20196;-62
2022/07/01 12:17:16;;;;;;;123.57;25.00;;;;;;;18.70;58.51;96953.66;2075379;28;20204;-63
2022/07/01 12:18:18;;;;;;;130.50;31.95;;;;;;;18.70;58.38;96953.66;2067274;28;20255;-63
2022/07/01 12:19:19;;;;;;;133.18;36.60;;;;;;;18.79;58.29;96952.16;2075986;28;20556;-63
2022/07/01 12:20:33;;;;;;;130.25;29.67;;;;;;;18.74;57.85;96955.13;2073976;28;20205;-61
2022/07/01 12:21:58;;;;;;;129.63;36.83;;;;;;;18.76;60.37;96955.88;2074844;28;20255;-61
2022/07/01 12:23:19;;;;;;;123.30;21.17;;;;;;;18.74;58.75;96950.69;2071527;28;20218;-61
2022/07/01 12:24:24;;;;;;;127.85;33.55;;;;;;;18.62;57.32;96961.34;2075921;28;20212;-61
2022/07/01 12:25:25;;;;;;;131.50;39.25;;;;;;;18.48;57.97;96949.94;2077704;28;20747;-61
2022/07/01 12:26:27;;;;;;;124.15;25.75;;;;;;;18.35;57.76;96963.19;2077046;28;20201;-61
2022/07/01 12:27:28;;;;;;;138.05;53.47;;;;;;;18.53;56.87;96955.75;2068786;28;20554;-61
2022/07/01 12:28:32;;;;;;;118.30;14.48;;;;;;;18.75;55.67;96952.41;2083612;28;20233;-61
2022/07/01 12:29:46;;;;;;;120.80;16.63;;;;;;;18.63;55.35;96947.13;2080149;28;20200;-61
2022/07/01 12:30:48;;;;;;;122.05;15.20;;;;;;;18.51;54.70;96948.88;2076911;28;20212;-61
2022/07/01 12:32:01;;;;;;;123.43;17.77;;;;;;;18.57;53.87;96949.25;2076973;28;20280;-61
2022/07/01 12:33:10;;;;;;;144.07;64.30;;;;;;;18.56;56.21;96952.88;2067962;28;20304;-61
2022/07/01 12:34:11;;;;;;;136.00;40.03;;;;;;;18.81;57.16;96947.63;2080320;28;20238;-61
2022/07/01 12:36:33;;;;;;;118.63;19.33;;;;;;;18.92;57.44;96947.69;2071621;28;20205;-62
2022/07/01 12:37:37;;;;;;;120.03;13.93;;;;;;;19.05;54.50;96951.09;2071963;28;20202;-62
2022/07/01 12:38:38;;;;;;;120.57;13.30;;;;;;;19.04;53.69;96946.78;2074854;28;20336;-62
2022/07/01 12:39:55;;;;;;;119.70;15.23;;;;;;;18.91;53.35;96951.28;2074052;28;20277;-62
2022/07/01 12:40:57;;;;;;;124.85;18.23;;;;;;;18.61;53.66;96947.25;2070070;28;20197;-61
2022/07/01 12:41:58;;;;;;;131.40;24.42;;;;;;;18.69;54.91;96944.03;2073661;28;20212;-62
2022/07/01 12:43:06;;;;;;;161.85;75.90;;;;;;;18.51;56.97;96952.38;2071785;28;20225;-61
2022/07/01 12:44:21;;;;;;;175.25;74.15;;;;;;;18.99;55.02;96954.22;2084783;28;20239;-61
2022/07/01 12:45:25;;;;;;;130.32;21.42;;;;;;;19.18;52.82;96953.69;2075346;28;20193;-61
2022/07/01 12:46:30;;;;;;;124.72;21.40;;;;;;;18.87;53.40;96950.66;2072700;28;20579;-64
2022/07/01 12:47:37;;;;;;;122.82;19.70;;;;;;;18.68;54.86;96940.56;2067369;28;20634;-61
2022/07/01 12:48:49;;;;;;;138.45;55.85;;;;;;;19.05;56.94;96955.56;2085626;28;20220;-63
2022/07/01 12:50:07;;;;;;;113.70;10.95;;;;;;;18.90;58.39;96947.78;2081165;28;20673;-61
2022/07/01 13:05:36;;;;;;;121.37;22.90;;;;;;;19.84;57.83;96901.97;2068148;27;1511720;-61
2022/07/01 13:06:37;;;;;;;117.82;15.65;;;;;;;20.41;57.65;96947.84;2116775;28;20198;-61
2022/07/01 13:07:39;;;;;;;118.55;13.02;;;;;;;20.86;53.60;96947.78;2104574;28;20226;-62
2022/07/01 13:08:46;;;;;;;119.28;12.52;;;;;;;19.89;52.71;96932.44;2090539;28;20188;-62
2022/07/01 13:09:48;;;;;;;133.63;38.40;;;;;;;19.68;54.24;96936.72;2089512;28;20207;-62
2022/07/01 13:10:49;;;;;;;132.95;44.28;;;;;;;19.90;55.21;96935.94;2092357;28;20658;-62
2022/07/01 13:11:51;;;;;;;150.80;67.47;;;;;;;20.15;53.99;96920.75;2092429;28;20238;-60
2022/07/01 13:12:53;;;;;;;118.97;14.07;;;;;;;20.58;51.91;96943.00;2079604;28;20227;-60
2022/07/01 13:13:54;;;;;;;118.45;13.50;;;;;;;20.62;51.17;96942.63;2090010;28;20200;-60
2022/07/01 13:14:57;;;;;;;121.63;15.75;;;;;;;20.27;52.34;96946.28;2089897;28;20226;-60
2022/07/01 13:15:58;;;;;;;126.82;32.85;;;;;;;20.29;53.86;96946.16;2092611;28;20207;-61
2022/07/01 13:17:00;;;;;;;138.25;41.05;;;;;;;19.80;54.45;96942.91;2088004;28;20197;-60
2022/07/01 13:18:03;;;;;;;120.35;14.27;;;;;;;20.08;54.45;96941.59;2080684;28;20220;-61
2022/07/01 13:19:05;;;;;;;119.10;15.13;;;;;;;20.48;52.64;96942.88;2090535;28;20382;-61
2022/07/01 13:20:07;;;;;;;125.38;24.15;;;;;;;20.48;51.19;96948.19;2091165;28;20692;-60
2022/07/01 13:21:08;;;;;;;129.18;31.30;;;;;;;20.84;50.60;96946.22;2090663;28;20188;-60
2022/07/01 13:22:10;;;;;;;132.70;37.85;;;;;;;20.01;51.39;96914.75;2089823;28;20204;-61
2022/07/01 13:23:12;;;;;;;136.60;45.50;;;;;;;20.08;54.32;96951.38;2090440;28;20233;-60
2022/07/01 13:24:14;;;;;;;133.57;41.38;;;;;;;19.10;54.33;96934.91;2090946;28;20197;-60
2022/07/01 13:25:34;;;;;;;121.45;21.10;;;;;;;18.53;58.09;96941.69;2091661;28;20224;-61
2022/07/01 13:26:39;;;;;;;122.32;18.95;;;;;;;18.55;55.53;96945.03;2091273;28;20674;-60
2022/07/01 13:27:43;;;;;;;125.00;18.55;;;;;;;18.16;55.14;96941.69;2080206;28;20281;-60
2022/07/01 13:28:44;;;;;;;123.20;22.90;;;;;;;18.00;57.52;96950.66;2091904;28;20192;-60
2022/07/01 13:29:45;;;;;;;131.93;36.65;;;;;;;18.39;56.60;96934.75;2092795;28;20204;-60
2022/07/01 13:30:47;;;;;;;138.93;57.65;;;;;;;19.34;55.22;96941.97;2092403;28;20207;-60
2022/07/01 13:31:48;;;;;;;131.70;38.38;;;;;;;19.62;54.23;96948.63;2091068;28;20188;-60
2022/07/01 13:32:53;;;;;;;131.77;34.85;;;;;;;19.94;53.95;96949.81;2083003;28;20224;-60
2022/07/01 13:33:55;;;;;;;120.43;14.85;;;;;;;20.34;50.75;96954.59;2088146;28;20224;-60
2022/07/01 13:34:56;;;;;;;120.50;17.75;;;;;;;20.26;51.24;96944.59;2089908;28;20203;-60
2022/07/01 13:35:58;;;;;;;120.18;15.75;;;;;;;20.21;51.18;96936.16;2092108;28;20196;-60
2022/07/01 13:36:59;;;;;;;125.95;26.80;;;;;;;20.70;49.12;96957.94;2092386;28;20200;-60
2022/07/01 13:38:01;;;;;;;127.18;27.40;;;;;;;21.21;48.10;96951.16;2089446;28;20224;-60
2022/07/01 13:39:02;;;;;;;120.43;17.50;;;;;;;20.99;49.99;96952.09;2091339;28;20197;-61
2022/07/01 13:40:05;;;;;;;117.20;12.45;;;;;;;21.32;50.05;96937.81;2091879;28;20249;-60
2022/07/01 13:41:07;;;;;;;130.93;32.15;;;;;;;21.19;48.49;96947.75;2089413;28;20643;-60
2022/07/01 13:42:09;;;;;;;130.05;32.10;;;;;;;21.07;49.67;96959.44;2091045;28;20203;-60
2022/07/01 13:43:10;;;;;;;130.80;32.45;;;;;;;21.33;48.58;96947.47;2071644;28;20231;-60
2022/07/01 13:44:12;;;;;;;129.73;29.60;;;;;;;21.04;49.58;96934.81;2082950;28;20208;-60
2022/07/01 13:45:14;;;;;;;121.70;16.92;;;;;;;20.68;50.17;96959.84;2090372;28;20200;-60
2022/07/01 13:46:16;;;;;;;118.43;9.93;;;;;;;20.54;50.31;96951.22;2091186;28;20211;-60
2022/07/01 13:47:18;;;;;;;131.63;38.50;;;;;;;19.24;53.27;96947.09;2088663;28;20205;-60
2022/07/01 13:48:19;;;;;;;125.38;25.27;;;;;;;19.25;54.37;96951.44;2088467;28;20204;-60
2022/07/01 13:49:21;;;;;;;124.05;14.13;;;;;;;19.60;53.98;96924.06;2089421;28;20197;-60
2022/07/01 13:50:22;;;;;;;121.10;19.98;;;;;;;19.79;52.71;96949.97;2087740;28;20204;-60
2022/07/01 13:51:24;;;;;;;129.88;30.50;;;;;;;20.01;51.21;96951.84;2089527;28;20585;-61
2022/07/01 13:52:28;;;;;;;118.63;11.95;;;;;;;19.46;52.93;96958.72;2092229;28;20245;-60
2022/07/01 13:53:29;;;;;;;118.95;11.40;;;;;;;19.61;52.96;96964.66;2091797;28;20200;-60
2022/07/01 13:54:31;;;;;;;116.47;10.75;;;;;;;20.45;51.13;96956.41;2090594;28;20924;-60
2022/07/01 13:55:32;;;;;;;118.60;11.52;;;;;;;20.66;50.01;96962.63;2090483;28;20192;-60
2022/07/01 13:56:34;;;;;;;117.68;12.90;;;;;;;20.47;50.23;96965.09;2090595;28;20208;-60
2022/07/01 13:57:35;;;;;;;119.63;16.65;;;;;;;19.17;52.78;96957.31;2080422;28;20193;-60
2022/07/01 13:58:37;;;;;;;116.97;11.85;;;;;;;19.47;52.59;96968.34;2089421;28;20203;-60
2022/07/01 13:59:38;;;;;;;120.03;14.38;;;;;;;20.36;50.65;96957.97;2090600;28;20196;-60
2022/07/01 14:00:42;;;;;;;123.65;22.60;;;;;;;20.88;51.14;96959.09;2089236;28;20245;-59
2022/07/01 14:01:44;;;;;;;121.68;24.15;;;;;;;21.07;49.65;96970.88;2088436;28;20201;-60
2022/07/01 14:02:46;;;;;;;122.68;20.75;;;;;;;21.31;48.35;96965.34;2079438;28;20705;-60
2022/07/01 14:03:48;;;;;;;130.30;28.00;;;;;;;22.07;46.91;96959.00;2081275;28;20208;-60
2022/07/01 14:04:49;;;;;;;121.00;16.58;;;;;;;22.31;45.15;96958.66;2085073;28;20192;-60
2022/07/01 14:05:51;;;;;;;125.85;25.60;;;;;;;23.12;44.51;96964.88;2090560;28;20719;-60
2022/07/01 14:06:53;;;;;;;116.28;3.47;;;;;;;22.57;42.16;96942.25;2090705;28;20204;-60
2022/07/01 14:07:55;;;;;;;115.07;3.70;;;;;;;22.91;42.47;96915.25;2089554;28;20220;-60
2022/07/01 14:08:56;;;;;;;122.57;3.78;;;;;;;23.22;42.44;96963.09;2090661;28;20200;-60
2022/07/01 14:09:58;;;;;;;114.28;3.38;;;;;;;22.32;44.62;96948.88;2089573;28;20196;-60
2022/07/01 14:11:00;;;;;;;118.85;8.02;;;;;;;21.96;46.98;96956.41;2092271;28;20219;-61
2022/07/01 14:12:01;;;;;;;119.82;16.00;;;;;;;22.46;46.13;96963.66;2092727;28;20207;-61
2022/07/01 14:13:05;;;;;;;114.68;3.72;;;;;;;22.45;45.77;96960.16;2080609;28;21054;-60
2022/07/01 14:14:06;;;;;;;114.68;3.10;;;;;;;22.65;44.47;96963.72;2091679;28;20199;-60
2022/07/01 14:15:09;;;;;;;117.20;3.20;;;;;;;22.41;44.91;96963.22;2090336;28;20259;-60
2022/07/01 14:16:10;;;;;;;116.93;3.40;;;;;;;21.96;45.82;96962.56;2089801;28;20196;-60
2022/07/01 14:17:11;;;;;;;113.35;3.45;;;;;;;21.78;45.79;96969.47;2084638;28;20721;-60
2022/07/01 14:18:13;;;;;;;116.63;4.70;;;;;;;21.63;45.28;96950.38;2074554;28;20308;-60
2022/07/01 14:19:15;;;;;;;114.22;3.65;;;;;;;21.87;47.93;96967.84;2083267;28;20200;-60
2022/07/01 14:20:17;;;;;;;116.25;2.90;;;;;;;21.49;47.37;96954.97;2083255;28;20208;-60
2022/07/01 14:21:20;;;;;;;113.25;3.50;;;;;;;20.55;47.95;96963.50;2083236;28;20204;-60
2022/07/01 14:22:22;;;;;;;114.93;4.95;;;;;;;20.34;47.62;96971.38;2083824;28;20482;-61
2022/07/01 14:23:23;;;;;;;114.45;3.42;;;;;;;20.43;48.02;96971.59;2083109;28;20227;-60
2022/07/01 14:24:26;;;;;;;116.15;3.78;;;;;;;20.13;48.29;96973.06;2084532;28;20396;-60
2022/07/01 14:25:27;;;;;;;126.95;3.88;;;;;;;20.15;49.62;96964.03;2084991;28;20461;-60
2022/07/01 14:26:29;;;;;;;117.13;5.03;;;;;;;19.88;50.35;96967.88;2084799;28;20193;-60
2022/07/01 14:27:30;;;;;;;133.07;35.05;;;;;;;19.72;52.12;96967.34;2073967;28;20194;-60
2022/07/01 14:28:32;;;;;;;116.93;9.27;;;;;;;19.74;51.26;96954.78;2084132;28;20660;-60
2022/07/01 14:29:33;;;;;;;117.32;10.88;;;;;;;19.71;51.28;96961.16;2084097;28;20193;-60
2022/07/01 14:30:35;;;;;;;130.85;34.95;;;;;;;19.56;51.39;96933.22;2084912;28;20193;-60
2022/07/01 14:31:37;;;;;;;114.43;4.70;;;;;;;19.48;49.68;96956.81;2086026;28;20201;-60
2022/07/01 14:32:42;;;;;;;116.82;4.75;;;;;;;19.70;50.36;96970.06;2073298;28;20228;-62
2022/07/01 14:33:43;;;;;;;114.65;3.35;;;;;;;20.23;48.51;96972.19;2075887;28;20305;-61
2022/07/01 14:34:45;;;;;;;118.13;3.90;;;;;;;20.36;48.58;96956.16;2084654;28;20189;-61
2022/07/01 14:35:47;;;;;;;133.88;32.13;;;;;;;20.33;50.73;96969.69;2085177;28;20250;-61
2022/07/01 14:36:54;;;;;;;127.78;34.05;;;;;;;19.80;53.29;96972.03;2084394;28;20236;-62
2022/07/01 14:37:57;;;;;;;120.38;21.25;;;;;;;19.85;53.61;96968.09;2084793;28;20224;-62
2022/07/01 14:38:58;;;;;;;115.78;12.02;;;;;;;19.51;55.19;96964.50;2081705;28;20193;-62
2022/07/01 14:39:59;;;;;;;113.05;8.40;;;;;;;20.01;53.52;96966.91;2083070;28;20432;-62
2022/07/01 14:41:01;;;;;;;129.23;21.92;;;;;;;19.96;52.80;96967.28;2084728;28;20279;-61
2022/07/01 14:42:03;;;;;;;121.20;21.15;;;;;;;19.78;52.91;96972.13;2084387;28;20762;-62
2022/07/01 14:43:04;;;;;;;117.53;14.07;;;;;;;19.86;52.78;96935.34;2074190;28;20231;-61
2022/07/01 14:44:06;;;;;;;117.05;14.52;;;;;;;19.40;54.07;96974.09;2085344;28;20208;-61
2022/07/01 14:45:08;;;;;;;114.20;9.27;;;;;;;20.00;52.82;96963.41;2083723;28;20220;-62
2022/07/01 14:46:11;;;;;;;114.68;8.25;;;;;;;20.81;50.99;96973.00;2086413;28;20216;-62
2022/07/01 14:47:12;;;;;;;115.65;11.82;;;;;;;20.19;53.04;96969.94;2087910;28;20203;-61
2022/07/01 14:48:14;;;;;;;134.18;26.17;;;;;;;19.57;50.49;96966.69;2076181;28;20680;-61
2022/07/01 14:49:17;;;;;;;121.75;14.13;;;;;;;19.69;51.37;96976.34;2085468;28;20757;-61
2022/07/01 14:50:19;;;;;;;118.53;9.88;;;;;;;19.39;51.86;96972.41;2085595;28;20196;-61
2022/07/01 14:51:20;;;;;;;119.80;9.07;;;;;;;19.50;52.32;96966.31;2085442;28;20200;-61
2022/07/01 14:52:23;;;;;;;118.80;11.50;;;;;;;20.62;49.34;96961.22;2084098;28;20643;-61
2022/07/01 14:53:26;;;;;;;119.53;13.95;;;;;;;20.82;47.77;96967.59;2084408;28;20666;-62
2022/07/01 14:54:27;;;;;;;121.07;14.88;;;;;;;20.79;47.67;96974.94;2083856;28;20192;-61
2022/07/01 14:55:30;;;;;;;117.50;8.68;;;;;;;20.92;46.77;96945.59;2083371;28;20201;-61
2022/07/01 14:56:31;;;;;;;126.90;22.73;;;;;;;21.29;49.15;96971.75;2083122;28;20189;-62
2022/07/01 14:57:33;;;;;;;114.95;4.22;;;;;;;20.75;46.26;96958.44;2074123;28;20199;-61
2022/07/01 14:58:36;;;;;;;126.03;22.42;;;;;;;19.71;51.12;96966.47;2081341;28;20198;-61
2022/07/01 14:59:37;;;;;;;123.45;19.83;;;;;;;20.39;49.50;96953.28;2085612;28;20197;-61
2022/07/01 15:00:39;;;;;;;126.47;25.55;;;;;;;21.03;48.99;96972.94;2084215;28;20193;-62
2022/07/01 15:01:40;;;;;;;114.47;8.73;;;;;;;21.40;49.86;96976.19;2083687;28;20192;-62
2022/07/01 15:02:42;;;;;;;128.77;16.50;;;;;;;21.61;47.39;96968.22;2072122;28;20228;-61
2022/07/01 15:03:44;;;;;;;113.88;3.30;;;;;;;21.86;45.97;96974.97;2083364;28;20232;-62
2022/07/01 15:04:46;;;;;;;119.80;3.65;;;;;;;21.60;45.18;96969.19;2082858;28;20698;-62
2022/07/01 15:05:48;;;;;;;119.03;3.63;;;;;;;21.39;47.02;96975.31;2082834;28;20319;-62
2022/07/01 15:06:54;;;;;;;117.72;3.70;;;;;;;21.46;46.50;96978.34;2085737;28;20228;-62
2022/07/01 15:07:56;;;;;;;121.68;3.53;;;;;;;22.07;46.97;96974.09;2084621;28;20230;-62
2022/07/01 15:08:57;;;;;;;125.20;4.75;;;;;;;21.25;48.46;96941.94;2084559;28;20209;-61
2022/07/01 15:10:02;;;;;;;126.68;4.75;;;;;;;20.44;48.90;96963.50;2084612;28;20204;-61